Station Charts

 

Station Historical Data
Daily Summary for February 13, 2018 Units:  English    Metric   Both
« Previous Day
Next Day »
Daily Weekly Monthly Yearly Custom
  High: Low: Average:
Temperature: TemperatureF °F 25.9 °F 36.3 °F
Dew Point: DewpointF °F 23.5 °F 28.1 °F
Humidity: Humidity % 45 % 74 %
Wind Speed: WindSpeedMPH mph 0.0 mph 0.6 mph
Wind Gust: WindSpeedGustMPH mph - -
Wind:- - SSW
Pressure: PressureIn in 30.00 in -
Precipitation: 0.15 in    
Historical Graphs
 
 
Tabular Data for February 13, 2018
Time Temperature Dew Point Pressure Wind Wind Speed Wind Gust Humidity Rainfall Rate (Hourly)
TemperatureF °F DewpointF °F PressureIn in Calm     Humidity % HourlyPrecipIn in
00:00 27.7 °F 24.6 °F 30.33 in Calm     88 % 0.00 in
00:05 27.7 °F 24.9 °F 30.34 in Calm     89 % 0.00 in
00:10 27.9 °F 24.8 °F 30.34 in Calm     88 % 0.00 in
00:15 27.9 °F 24.8 °F 30.34 in Calm     88 % 0.00 in
00:20 27.7 °F 24.6 °F 30.34 in Calm     88 % 0.00 in
00:25 27.7 °F 24.6 °F 30.34 in Calm     88 % 0.00 in
00:30 27.7 °F 24.6 °F 30.34 in Calm     88 % 0.00 in
00:36 27.5 °F 24.4 °F 30.35 in Calm     88 % 0.00 in
00:41 27.5 °F 24.4 °F 30.35 in Calm     88 % 0.00 in
00:46 27.3 °F 24.5 °F 30.35 in Calm     89 % 0.00 in
00:51 27.3 °F 24.2 °F 30.35 in Calm     88 % 0.00 in
00:56 27.3 °F 24.2 °F 30.35 in Calm     88 % 0.00 in
01:01 27.3 °F 24.2 °F 30.35 in Calm     88 % 0.00 in
01:06 27.3 °F 24.2 °F 30.34 in Calm     88 % 0.00 in
01:11 27.1 °F 24.1 °F 30.34 in Calm     88 % 0.00 in
01:16 27.1 °F 24.3 °F 30.34 in Calm     89 % 0.00 in
01:21 27.1 °F 24.3 °F 30.35 in Calm     89 % 0.00 in
01:26 27.1 °F 24.3 °F 30.35 in Calm     89 % 0.00 in
01:31 27.0 °F 23.9 °F 30.35 in Calm     88 % 0.00 in
01:36 27.0 °F 23.9 °F 30.35 in Calm     88 % 0.00 in
01:41 27.0 °F 23.9 °F 30.35 in Calm     88 % 0.00 in
01:46 26.8 °F 24.0 °F 30.35 in Calm     89 % 0.00 in
01:52 26.8 °F 24.0 °F 30.35 in Calm     89 % 0.00 in
01:57 26.8 °F 24.0 °F 30.35 in Calm     89 % 0.00 in
02:02 26.6 °F 23.5 °F 30.35 in Calm     88 % 0.00 in
02:07 26.6 °F 23.8 °F 30.35 in Calm     89 % 0.00 in
02:12 26.6 °F 23.8 °F 30.35 in Calm     89 % 0.00 in
02:17 26.4 °F 23.6 °F 30.35 in Calm     89 % 0.00 in
02:22 26.4 °F 23.9 °F 30.35 in Calm     90 % 0.00 in
02:27 26.4 °F 23.6 °F 30.35 in Calm     89 % 0.00 in
02:32 26.6 °F 23.8 °F 30.35 in Calm     89 % 0.00 in
02:37 26.6 °F 23.8 °F 30.35 in Calm     89 % 0.00 in
02:42 26.4 °F 23.6 °F 30.35 in Calm     89 % 0.00 in
02:47 26.6 °F 24.1 °F 30.34 in Calm     90 % 0.00 in
02:52 26.4 °F 23.9 °F 30.34 in Calm     90 % 0.00 in
02:57 26.4 °F 24.1 °F 30.34 in Calm     91 % 0.00 in
03:02 26.4 °F 24.1 °F 30.34 in Calm     91 % 0.00 in
03:07 26.4 °F 24.1 °F 30.34 in Calm     91 % 0.00 in
03:12 26.4 °F 24.1 °F 30.34 in Calm     91 % 0.00 in
03:17 26.4 °F 24.1 °F 30.33 in Calm     91 % 0.00 in
03:23 26.4 °F 24.1 °F 30.33 in Calm     91 % 0.00 in
03:28 26.4 °F 24.1 °F 30.33 in Calm     91 % 0.00 in
03:33 26.4 °F 24.1 °F 30.33 in Calm     91 % 0.00 in
03:38 26.4 °F 24.4 °F 30.33 in Calm     92 % 0.00 in
03:43 26.4 °F 24.1 °F 30.33 in Calm     91 % 0.00 in
03:48 26.4 °F 24.1 °F 30.32 in Calm     91 % 0.00 in
03:53 26.4 °F 24.4 °F 30.32 in Calm     92 % 0.00 in
03:58 26.4 °F 24.4 °F 30.32 in Calm     92 % 0.00 in
04:03 26.4 °F 24.4 °F 30.32 in Calm     92 % 0.00 in
04:08 26.4 °F 24.4 °F 30.32 in Calm     92 % 0.00 in
04:13 26.4 °F 24.4 °F 30.32 in Calm     92 % 0.00 in
04:18 26.4 °F 24.4 °F 30.32 in Calm     92 % 0.00 in
04:23 26.4 °F 24.4 °F 30.32 in Calm     92 % 0.00 in
04:28 26.4 °F 24.4 °F 30.32 in Calm     92 % 0.00 in
04:34 26.4 °F 24.4 °F 30.32 in Calm     92 % 0.00 in
04:39 26.4 °F 24.4 °F 30.32 in Calm     92 % 0.00 in
04:44 26.6 °F 24.6 °F 30.32 in Calm     92 % 0.00 in
04:49 26.4 °F 24.1 °F 30.32 in Calm     91 % 0.00 in
04:54 26.4 °F 24.4 °F 30.32 in Calm     92 % 0.00 in
04:59 26.4 °F 24.4 °F 30.32 in Calm     92 % 0.00 in
05:04 26.6 °F 24.6 °F 30.32 in Calm     92 % 0.00 in
05:09 26.4 °F 24.4 °F 30.32 in Calm     92 % 0.00 in
05:14 26.4 °F 24.1 °F 30.32 in Calm     91 % 0.00 in
05:19 26.4 °F 24.1 °F 30.32 in Calm     91 % 0.00 in
05:24 26.2 °F 24.0 °F 30.32 in Calm     91 % 0.00 in
05:29 26.2 °F 24.0 °F 30.32 in Calm     91 % 0.00 in
05:34 26.2 °F 24.0 °F 30.32 in Calm     91 % 0.00 in
05:39 26.2 °F 24.0 °F 30.32 in Calm     91 % 0.00 in
05:44 26.1 °F 24.1 °F 30.32 in Calm     92 % 0.00 in
05:49 26.2 °F 24.2 °F 30.32 in Calm     92 % 0.00 in
05:54 26.2 °F 24.2 °F 30.32 in Calm     92 % 0.00 in
06:00 26.2 °F 24.0 °F 30.32 in Calm     91 % 0.00 in
06:05 26.2 °F 24.0 °F 30.32 in Calm     91 % 0.00 in
06:10 26.2 °F 24.0 °F 30.32 in Calm     91 % 0.00 in
06:15 26.1 °F 23.8 °F 30.32 in Calm     91 % 0.00 in
06:20 26.1 °F 23.8 °F 30.31 in Calm     91 % 0.00 in
06:25 26.1 °F 23.8 °F 30.31 in Calm     91 % 0.00 in
06:30 25.9 °F 23.6 °F 30.31 in Calm     91 % 0.00 in
06:35 25.9 °F 23.6 °F 30.31 in Calm     91 % 0.00 in
06:40 25.9 °F 23.9 °F 30.31 in Calm     92 % 0.00 in
06:45 25.9 °F 23.9 °F 30.31 in Calm     92 % 0.00 in
06:50 26.1 °F 23.8 °F 30.30 in Calm     91 % 0.00 in
06:55 25.9 °F 23.6 °F 30.30 in Calm     91 % 0.00 in
07:00 25.9 °F 23.9 °F 30.30 in Calm     92 % 0.00 in
07:05 26.1 °F 24.1 °F 30.30 in Calm     92 % 0.00 in
07:10 26.1 °F 24.1 °F 30.30 in Calm     92 % 0.00 in
07:15 26.1 °F 24.1 °F 30.30 in Calm     92 % 0.00 in
07:20 26.1 °F 24.1 °F 30.30 in Calm     92 % 0.00 in
07:25 26.2 °F 24.5 °F 30.30 in Calm     93 % 0.00 in
07:31 26.2 °F 24.5 °F 30.30 in Calm     93 % 0.00 in
07:36 26.2 °F 24.5 °F 30.30 in Calm     93 % 0.00 in
07:41 26.4 °F 24.7 °F 30.30 in Calm     93 % 0.00 in
07:46 26.4 °F 24.7 °F 30.30 in Calm     93 % 0.00 in
07:51 26.6 °F 24.8 °F 30.30 in Calm     93 % 0.00 in
07:56 26.8 °F 25.0 °F 30.30 in Calm     93 % 0.00 in
08:01 26.8 °F 25.0 °F 30.30 in Calm     93 % 0.00 in
08:06 27.0 °F 25.2 °F 30.30 in Calm     93 % 0.00 in
08:11 27.0 °F 25.2 °F 30.30 in Calm     93 % 0.00 in
08:16 27.1 °F 25.4 °F 30.30 in Calm     93 % 0.00 in
08:21 27.5 °F 25.7 °F 30.30 in Calm     93 % 0.00 in
08:26 27.9 °F 26.1 °F 30.30 in Calm     93 % 0.00 in
08:31 28.0 °F 26.3 °F 30.30 in Calm     93 % 0.00 in
08:36 28.6 °F 26.8 °F 30.30 in Calm     93 % 0.00 in
08:41 29.1 °F 27.3 °F 30.30 in Calm     93 % 0.00 in
08:46 29.7 °F 27.9 °F 30.30 in Calm     93 % 0.00 in
08:51 30.0 °F 28.0 °F 30.29 in Calm     92 % 0.00 in
08:57 30.4 °F 28.3 °F 30.29 in Calm     92 % 0.00 in
09:02 30.6 °F 28.2 °F 30.30 in Calm     91 % 0.00 in
09:07 30.7 °F 28.2 °F 30.30 in Calm     90 % 0.00 in
09:12 30.9 °F 28.3 °F 30.30 in Calm     90 % 0.00 in
09:17 31.1 °F 28.5 °F 30.29 in Calm     90 % 0.00 in
09:22 31.3 °F 28.4 °F 30.29 in Calm     89 % 0.00 in
09:27 31.5 °F 28.6 °F 30.29 in Calm     89 % 0.00 in
09:32 31.8 °F 28.9 °F 30.29 in Calm     89 % 0.00 in
09:37 32.4 °F 29.2 °F 30.29 in NNW 2.3 mph   88 % 0.00 in
09:42 33.1 °F 29.3 °F 30.29 in Calm     86 % 0.00 in
09:47 33.8 °F 29.5 °F 30.29 in Calm     84 % 0.00 in
09:52 34.5 °F 29.6 °F 30.29 in NNE 2.3 mph   82 % 0.00 in
09:57 35.1 °F 29.5 °F 30.29 in NNE 2.3 mph   80 % 0.00 in
10:02 35.8 °F 30.8 °F 30.29 in Calm     82 % 0.00 in
10:08 36.1 °F 30.9 °F 30.29 in Calm     81 % 0.00 in
10:13 36.7 °F 31.4 °F 30.29 in Calm     81 % 0.00 in
10:18 37.2 °F 31.3 °F 30.29 in Calm     79 % 0.00 in
10:23 37.8 °F 31.5 °F 30.29 in Calm     78 % 0.00 in
10:28 38.5 °F 30.6 °F 30.29 in Calm     73 % 0.00 in
10:33 38.7 °F 29.7 °F 30.29 in South 1.2 mph   70 % 0.00 in
10:38 38.7 °F 29.7 °F 30.29 in Calm     70 % 0.00 in
10:43 38.7 °F 30.1 °F 30.29 in Calm     71 % 0.00 in
10:48 38.7 °F 29.0 °F 30.29 in SW 3.5 mph   68 % 0.00 in
10:53 39.0 °F 29.3 °F 30.29 in SW 2.4 mph   68 % 0.00 in
10:58 39.2 °F 28.4 °F 30.29 in SSW 2.9 mph 2.9 mph 65 % 0.00 in
11:03 39.6 °F 28.8 °F 30.28 in SSW 1.2 mph 1.4 mph 65 % 0.00 in
11:08 39.9 °F 29.5 °F 30.28 in Calm     66 % 0.00 in
11:13 40.6 °F 29.8 °F 30.28 in Calm     65 % 0.00 in
11:18 41.2 °F 30.3 °F 30.27 in Calm     65 % 0.00 in
11:23 41.7 °F 29.6 °F 30.27 in Calm     62 % 0.00 in
11:29 42.1 °F 30.4 °F 30.27 in Calm     63 % 0.00 in
11:34 42.6 °F 30.1 °F 30.26 in Calm     61 % 0.00 in
11:39 43.2 °F 30.2 °F 30.26 in Calm     60 % 0.00 in
11:44 43.5 °F 30.1 °F 30.26 in Calm     59 % 0.00 in
11:49 44.4 °F 30.6 °F 30.25 in Calm     58 % 0.00 in
11:54 45.0 °F 30.6 °F 30.25 in SE 2.3 mph   57 % 0.00 in
11:59 45.3 °F 31.0 °F 30.25 in SSE 3.6 mph   57 % 0.00 in
12:04 45.5 °F 30.3 °F 30.24 in SSE 3.5 mph   55 % 0.00 in
12:09 45.3 °F 30.5 °F 30.24 in SSE 1.2 mph 1.4 mph 56 % 0.00 in
12:14 45.7 °F 30.0 °F 30.24 in Calm   1.4 mph 54 % 0.00 in
12:19 45.7 °F 29.5 °F 30.23 in SE 4.6 mph   53 % 0.00 in
12:24 45.7 °F 29.0 °F 30.23 in SSE 2.3 mph   52 % 0.00 in
12:29 45.3 °F 28.2 °F 30.23 in SE 3.1 mph   51 % 0.00 in
12:34 45.3 °F 29.2 °F 30.22 in South 2.3 mph   53 % 0.00 in
12:39 45.3 °F 29.6 °F 30.22 in WSW 2.3 mph 2.3 mph 54 % 0.00 in
12:45 45.5 °F 30.3 °F 30.22 in South 3.5 mph 3.5 mph 55 % 0.00 in
12:50 45.9 °F 30.6 °F 30.21 in ESE 2.3 mph   55 % 0.00 in
12:55 46.2 °F 30.9 °F 30.21 in Calm     55 % 0.00 in
13:00 46.8 °F 31.9 °F 30.21 in Calm     56 % 0.00 in
13:05 47.1 °F 29.4 °F 30.21 in SW 2.3 mph   50 % 0.00 in
13:10 47.5 °F 29.7 °F 30.21 in Calm     50 % 0.00 in
13:15 47.7 °F 30.4 °F 30.21 in Calm     51 % 0.00 in
13:20 47.7 °F 29.4 °F 30.20 in WNW 2.3 mph   49 % 0.00 in
13:25 47.1 °F 27.4 °F 30.20 in WNW 3.5 mph   46 % 0.00 in
13:30 46.8 °F 27.0 °F 30.20 in SSW 2.3 mph 2.3 mph 46 % 0.00 in
13:35 46.4 °F 26.2 °F 30.20 in Calm     45 % 0.00 in
13:40 46.2 °F 28.1 °F 30.20 in SW 2.3 mph   49 % 0.00 in
13:45 46.2 °F 27.1 °F 30.20 in SSW 2.3 mph   47 % 0.00 in
13:50 46.2 °F 28.6 °F 30.19 in North 1.2 mph   50 % 0.00 in
13:56 46.4 °F 27.8 °F 30.19 in SW 2.4 mph   48 % 0.00 in
14:01 46.2 °F 28.1 °F 30.19 in WNW 1.2 mph   49 % 0.00 in
14:06 46.6 °F 28.4 °F 30.19 in Calm     49 % 0.00 in
14:11 46.6 °F 27.4 °F 30.19 in North 3.5 mph   47 % 0.00 in
14:16 46.6 °F 27.4 °F 30.19 in NNE 2.3 mph 2.3 mph 47 % 0.00 in
14:21 46.6 °F 27.4 °F 30.17 in NNE 4.6 mph 4.6 mph 47 % 0.00 in
14:26 46.8 °F 28.1 °F 30.17 in NNE 2.3 mph   48 % 0.00 in
14:31 46.9 °F 27.7 °F 30.17 in North 2.3 mph   47 % 0.00 in
14:36 47.5 °F 28.7 °F 30.17 in Calm     48 % 0.00 in
14:41 47.8 °F 29.6 °F 30.17 in Calm     49 % 0.00 in
14:46 48.2 °F 28.4 °F 30.17 in South 4.7 mph   46 % 0.00 in
14:51 48.4 °F 28.5 °F 30.16 in South 3.5 mph   46 % 0.00 in
14:56 48.6 °F 29.2 °F 30.16 in Calm   1.4 mph 47 % 0.00 in
15:01 48.4 °F 29.1 °F 30.16 in Calm   1.4 mph 47 % 0.00 in
15:07 48.4 °F 28.5 °F 30.16 in SW 2.9 mph   46 % 0.00 in
15:12 48.4 °F 28.0 °F 30.16 in SW 3.5 mph   45 % 0.00 in
15:17 48.0 °F 28.7 °F 30.15 in Calm   1.4 mph 47 % 0.00 in
15:22 48.0 °F 29.2 °F 30.15 in Calm   1.4 mph 48 % 0.00 in
15:27 47.8 °F 29.1 °F 30.15 in NNW 4.6 mph 4.6 mph 48 % 0.00 in
15:32 47.7 °F 30.4 °F 30.14 in NNE 2.3 mph 2.3 mph 51 % 0.00 in
15:37 47.5 °F 30.2 °F 30.14 in Calm   1.8 mph 51 % 0.00 in
15:42 47.3 °F 29.1 °F 30.14 in North 2.3 mph 2.3 mph 49 % 0.00 in
15:47 47.1 °F 29.4 °F 30.14 in NNW 1.2 mph   50 % 0.00 in
15:52 46.9 °F 29.7 °F 30.14 in Calm     51 % 0.00 in
15:57 46.9 °F 29.2 °F 30.14 in Calm     50 % 0.00 in
16:02 46.8 °F 29.1 °F 30.13 in Calm     50 % 0.00 in
16:07 46.8 °F 29.1 °F 30.13 in NNW 2.3 mph   50 % 0.00 in
16:12 46.6 °F 28.9 °F 30.13 in Calm     50 % 0.00 in
16:18 46.6 °F 29.9 °F 30.12 in Calm     52 % 0.00 in
16:23 46.6 °F 29.4 °F 30.12 in Calm     51 % 0.00 in
16:28 46.4 °F 28.8 °F 30.12 in Calm     50 % 0.00 in
16:33 46.2 °F 28.6 °F 30.11 in NNW 2.3 mph   50 % 0.00 in
16:38 46.2 °F 29.1 °F 30.11 in Calm     51 % 0.00 in
16:43 46.0 °F 28.4 °F 30.11 in Calm     50 % 0.00 in
16:48 45.9 °F 28.7 °F 30.11 in Calm     51 % 0.00 in
16:53 45.9 °F 28.7 °F 30.11 in Calm     51 % 0.00 in
16:58 45.7 °F 29.5 °F 30.11 in Calm     53 % 0.00 in
17:03 45.5 °F 28.9 °F 30.11 in Calm     52 % 0.00 in
17:08 45.3 °F 29.6 °F 30.11 in Calm     54 % 0.00 in
17:13 45.1 °F 29.5 °F 30.11 in Calm     54 % 0.00 in
17:18 45.1 °F 29.5 °F 30.11 in Calm     54 % 0.00 in
17:23 45.0 °F 29.8 °F 30.11 in Calm     55 % 0.00 in
17:28 44.8 °F 29.6 °F 30.11 in Calm     55 % 0.00 in
17:34 44.6 °F 29.9 °F 30.10 in Calm     56 % 0.00 in
17:39 44.4 °F 29.7 °F 30.10 in Calm     56 % 0.00 in
17:44 44.4 °F 30.6 °F 30.10 in Calm     58 % 0.00 in
17:49 44.2 °F 30.0 °F 30.10 in Calm     57 % 0.00 in
17:54 44.1 °F 30.2 °F 30.10 in Calm     58 % 0.00 in
17:59 43.9 °F 30.0 °F 30.10 in Calm     58 % 0.00 in
18:04 43.7 °F 29.9 °F 30.09 in Calm     58 % 0.00 in
18:09 43.5 °F 29.7 °F 30.09 in Calm     58 % 0.00 in
18:14 43.3 °F 30.0 °F 30.09 in Calm     59 % 0.00 in
18:19 43.3 °F 30.4 °F 30.08 in Calm     60 % 0.00 in
18:24 43.2 °F 30.2 °F 30.08 in Calm     60 % 0.00 in
18:29 43.0 °F 29.6 °F 30.08 in Calm     59 % 0.00 in
18:34 42.8 °F 29.5 °F 30.09 in Calm     59 % 0.00 in
18:39 42.6 °F 29.7 °F 30.09 in Calm     60 % 0.00 in
18:44 42.6 °F 30.5 °F 30.09 in Calm     62 % 0.00 in
18:49 42.4 °F 29.9 °F 30.09 in Calm     61 % 0.00 in
18:54 42.4 °F 29.9 °F 30.09 in Calm     61 % 0.00 in
19:00 42.3 °F 29.8 °F 30.09 in Calm     61 % 0.00 in
19:05 42.3 °F 30.2 °F 30.08 in Calm     62 % 0.00 in
19:10 42.1 °F 30.4 °F 30.08 in Calm     63 % 0.00 in
19:15 42.1 °F 30.0 °F 30.08 in Calm     62 % 0.00 in
19:20 41.9 °F 30.6 °F 30.08 in Calm     64 % 0.00 in
19:25 41.7 °F 30.8 °F 30.08 in Calm     65 % 0.00 in
19:30 41.7 °F 30.8 °F 30.08 in Calm     65 % 0.00 in
19:35 41.7 °F 30.8 °F 30.07 in Calm     65 % 0.00 in
19:40 41.5 °F 31.0 °F 30.07 in Calm     66 % 0.00 in
19:45 41.5 °F 31.0 °F 30.07 in Calm     66 % 0.00 in
19:50 41.4 °F 30.5 °F 30.07 in Calm     65 % 0.00 in
19:55 41.4 °F 30.5 °F 30.07 in Calm     65 % 0.00 in
20:00 41.2 °F 30.3 °F 30.07 in Calm     65 % 0.00 in
20:05 41.2 °F 31.0 °F 30.07 in Calm     67 % 0.00 in
20:11 41.2 °F 31.0 °F 30.07 in Calm     67 % 0.00 in
20:16 41.0 °F 30.5 °F 30.07 in Calm     66 % 0.00 in
20:21 41.0 °F 30.1 °F 30.06 in Calm     65 % 0.00 in
20:26 41.0 °F 31.2 °F 30.06 in Calm     68 % 0.00 in
20:31 40.8 °F 30.7 °F 30.06 in Calm     67 % 0.00 in
20:36 40.8 °F 31.1 °F 30.06 in Calm     68 % 0.00 in
20:41 40.8 °F 31.8 °F 30.06 in Calm     70 % 0.00 in
20:46 41.0 °F 32.3 °F 30.06 in Calm     71 % 0.00 in
20:51 40.8 °F 32.1 °F 30.06 in Calm     71 % 0.00 in
20:56 41.0 °F 32.3 °F 30.06 in Calm     71 % 0.00 in
21:01 41.0 °F 32.7 °F 30.06 in Calm     72 % 0.00 in
21:06 40.8 °F 32.1 °F 30.06 in Calm     71 % 0.00 in
21:11 40.8 °F 32.8 °F 30.06 in West 4.6 mph   73 % 0.00 in
21:16 40.8 °F 32.8 °F 30.06 in SSE 2.4 mph   73 % 0.00 in
21:22 40.8 °F 31.8 °F 30.06 in South 3.5 mph   70 % 0.00 in
21:27 41.2 °F 32.8 °F 30.06 in Calm   1.4 mph 72 % 0.00 in
21:32 41.0 °F 33.0 °F 30.06 in Calm   1.4 mph 73 % 0.00 in
21:37 40.8 °F 33.8 °F 30.06 in Calm     76 % 0.00 in
21:42 40.8 °F 33.8 °F 30.06 in SSE 3.5 mph   76 % 0.00 in
21:47 40.6 °F 34.3 °F 30.06 in Calm     78 % 0.00 in
21:52 40.5 °F 34.8 °F 30.06 in Calm     80 % 0.00 in
21:57 40.1 °F 35.0 °F 30.06 in Calm     82 % 0.01 in
22:02 39.9 °F 34.9 °F 30.05 in Calm     82 % 0.01 in
22:07 39.6 °F 34.8 °F 30.05 in Calm     83 % 0.02 in
22:12 39.4 °F 34.9 °F 30.05 in WNW 5.8 mph   84 % 0.02 in
22:17 39.0 °F 34.9 °F 30.04 in Calm     85 % 0.03 in
22:22 38.8 °F 35.0 °F 30.04 in WSW 4.6 mph   86 % 0.03 in
22:27 38.7 °F 34.5 °F 30.04 in North 1.4 mph   85 % 0.04 in
22:32 38.5 °F 34.7 °F 30.03 in SSE 2.3 mph   86 % 0.04 in
22:37 38.3 °F 34.8 °F 30.03 in Calm     87 % 0.05 in
22:43 38.1 °F 34.6 °F 30.03 in Calm     87 % 0.06 in
22:48 38.1 °F 34.3 °F 30.02 in South 6.2 mph   86 % 0.07 in
22:53 38.1 °F 34.9 °F 30.02 in Calm     88 % 0.08 in
22:58 37.9 °F 34.7 °F 30.02 in ESE 2.3 mph 2.3 mph 88 % 0.07 in
23:03 37.8 °F 34.5 °F 30.01 in Calm   1.4 mph 88 % 0.08 in
23:08 37.8 °F 34.8 °F 30.01 in Calm     89 % 0.07 in
23:13 37.6 °F 34.6 °F 30.01 in Calm     89 % 0.08 in
23:18 37.4 °F 34.5 °F 30.00 in Calm     89 % 0.07 in
23:23 37.2 °F 34.3 °F 30.00 in South 4.6 mph   89 % 0.07 in
23:28 37.2 °F 34.6 °F 30.00 in Calm     90 % 0.07 in
23:33 37.2 °F 34.6 °F 30.01 in NW 2.3 mph   90 % 0.07 in
23:38 37.0 °F 34.4 °F 30.01 in South 2.3 mph   90 % 0.07 in
23:43 37.0 °F 34.4 °F 30.01 in SSW 4.6 mph   90 % 0.07 in
23:48 36.9 °F 34.2 °F 30.00 in SW 4.6 mph   90 % 0.06 in
23:54 36.9 °F 34.2 °F 30.00 in SSW 2.3 mph   90 % 0.06 in
23:59 36.7 °F 34.3 °F 30.00 in WSW 2.3 mph   91 % 0.07 in
Compliments of Weather Underground - 2 mb